sensor_id;sensor_type;location;lat;lon;timestamp;pressure;altitude;pressure_sealevel;temperature;humidity
32638;BME280;19045;52.268;10.506;2022-10-31T00:00:21;100981.44;;;15.16;85.79
32638;BME280;19045;52.268;10.506;2022-10-31T00:02:48;100990.13;;;15.13;86.07
32638;BME280;19045;52.268;10.506;2022-10-31T00:05:14;100980.38;;;15.01;86.54
32638;BME280;19045;52.268;10.506;2022-10-31T00:07:41;100984.19;;;14.90;87.84
32638;BME280;19045;52.268;10.506;2022-10-31T00:10:08;100979.59;;;14.86;87.74
32638;BME280;19045;52.268;10.506;2022-10-31T00:12:35;100990.69;;;14.84;88.12
32638;BME280;19045;52.268;10.506;2022-10-31T00:15:02;100993.13;;;14.86;88.00
32638;BME280;19045;52.268;10.506;2022-10-31T00:17:30;100990.69;;;14.89;88.48
32638;BME280;19045;52.268;10.506;2022-10-31T00:19:56;100987.69;;;14.96;87.79
32638;BME280;19045;52.268;10.506;2022-10-31T00:22:23;100991.50;;;14.90;88.33
32638;BME280;19045;52.268;10.506;2022-10-31T00:24:51;100997.72;;;14.85;88.04
32638;BME280;19045;52.268;10.506;2022-10-31T00:27:17;100989.59;;;14.90;88.46
32638;BME280;19045;52.268;10.506;2022-10-31T00:29:44;100992.03;;;14.92;87.92
32638;BME280;19045;52.268;10.506;2022-10-31T00:32:11;100995.81;;;14.96;87.84
32638;BME280;19045;52.268;10.506;2022-10-31T00:34:38;101007.44;;;14.91;87.85
32638;BME280;19045;52.268;10.506;2022-10-31T00:37:05;101003.38;;;14.89;87.99
32638;BME280;19045;52.268;10.506;2022-10-31T00:39:32;101002.03;;;14.86;87.98
32638;BME280;19045;52.268;10.506;2022-10-31T00:41:58;101004.22;;;14.89;87.70
32638;BME280;19045;52.268;10.506;2022-10-31T00:44:25;101005.28;;;14.83;88.37
32638;BME280;19045;52.268;10.506;2022-10-31T00:46:51;101010.72;;;14.83;87.72
32638;BME280;19045;52.268;10.506;2022-10-31T00:49:18;101000.41;;;14.85;87.96
32638;BME280;19045;52.268;10.506;2022-10-31T00:51:49;101010.97;;;14.82;88.38
32638;BME280;19045;52.268;10.506;2022-10-31T00:54:16;101010.44;;;14.80;88.22
32638;BME280;19045;52.268;10.506;2022-10-31T00:56:42;101010.16;;;14.76;88.54
32638;BME280;19045;52.268;10.506;2022-10-31T00:59:09;101019.09;;;14.77;88.26
32638;BME280;19045;52.268;10.506;2022-10-31T01:01:35;101020.72;;;14.88;86.80
32638;BME280;19045;52.268;10.506;2022-10-31T01:04:02;101016.38;;;14.87;87.58
32638;BME280;19045;52.268;10.506;2022-10-31T01:06:29;101025.03;;;14.89;86.89
32638;BME280;19045;52.268;10.506;2022-10-31T01:08:57;101033.97;;;14.84;86.88
32638;BME280;19045;52.268;10.506;2022-10-31T01:11:24;101038.53;;;14.69;87.93
32638;BME280;19045;52.268;10.506;2022-10-31T01:13:52;101030.16;;;14.65;88.14
32638;BME280;19045;52.268;10.506;2022-10-31T01:16:20;101040.72;;;14.52;88.77
32638;BME280;19045;52.268;10.506;2022-10-31T01:18:47;101037.72;;;14.48;89.23
32638;BME280;19045;52.268;10.506;2022-10-31T01:21:15;101035.28;;;14.41;89.79
32638;BME280;19045;52.268;10.506;2022-10-31T01:23:42;101040.88;;;14.30;90.33
32638;BME280;19045;52.268;10.506;2022-10-31T01:26:11;101034.63;;;14.19;91.13
32638;BME280;19045;52.268;10.506;2022-10-31T01:28:42;101035.97;;;14.12;91.36
32638;BME280;19045;52.268;10.506;2022-10-31T01:31:10;101039.19;;;13.98;91.85
32638;BME280;19045;52.268;10.506;2022-10-31T01:33:37;101045.66;;;13.97;91.80
32638;BME280;19045;52.268;10.506;2022-10-31T01:36:11;101048.09;;;14.04;91.20
32638;BME280;19045;52.268;10.506;2022-10-31T01:38:38;101047.53;;;14.02;91.39
32638;BME280;19045;52.268;10.506;2022-10-31T01:41:05;101045.66;;;14.03;91.26
32638;BME280;19045;52.268;10.506;2022-10-31T01:43:47;101051.63;;;14.05;91.17
32638;BME280;19045;52.268;10.506;2022-10-31T01:46:14;101057.03;;;14.10;90.75
32638;BME280;19045;52.268;10.506;2022-10-31T01:48:42;101059.97;;;14.03;91.21
32638;BME280;19045;52.268;10.506;2022-10-31T01:51:09;101050.22;;;13.97;91.49
32638;BME280;19045;52.268;10.506;2022-10-31T01:53:39;101051.59;;;13.99;91.06
32638;BME280;19045;52.268;10.506;2022-10-31T01:56:07;101058.34;;;13.97;91.34
32638;BME280;19045;52.268;10.506;2022-10-31T01:58:34;101059.69;;;13.99;90.93
32638;BME280;19045;52.268;10.506;2022-10-31T02:01:03;101060.22;;;13.96;91.19
32638;BME280;19045;52.268;10.506;2022-10-31T02:03:34;101069.38;;;13.90;91.54
32638;BME280;19045;52.268;10.506;2022-10-31T02:06:24;101068.28;;;13.86;92.17
32638;BME280;19045;52.268;10.506;2022-10-31T02:08:54;101074.47;;;13.82;91.85
32638;BME280;19045;52.268;10.506;2022-10-31T02:11:22;101066.63;;;13.80;92.14
32638;BME280;19045;52.268;10.506;2022-10-31T02:13:49;101079.34;;;13.85;91.84
32638;BME280;19045;52.268;10.506;2022-10-31T02:16:17;101076.97;;;13.93;91.24
32638;BME280;19045;52.268;10.506;2022-10-31T02:18:43;101075.63;;;13.96;91.20
32638;BME280;19045;52.268;10.506;2022-10-31T02:21:15;101084.53;;;13.96;90.60
32638;BME280;19045;52.268;10.506;2022-10-31T02:24:00;101085.13;;;14.04;90.08
32638;BME280;19045;52.268;10.506;2022-10-31T02:29:57;101085.13;;;14.04;90.18
32638;BME280;19045;52.268;10.506;2022-10-31T02:32:35;101081.59;;;14.03;90.13
32638;BME280;19045;52.268;10.506;2022-10-31T02:35:10;101095.91;;;14.04;90.00
32638;BME280;19045;52.268;10.506;2022-10-31T02:37:43;101096.69;;;13.94;90.74
32638;BME280;19045;52.268;10.506;2022-10-31T02:40:17;101098.31;;;14.00;90.68
32638;BME280;19045;52.268;10.506;2022-10-31T02:42:50;101096.75;;;14.09;89.77
32638;BME280;19045;52.268;10.506;2022-10-31T02:45:19;101104.59;;;14.16;89.75
32638;BME280;19045;52.268;10.506;2022-10-31T02:47:50;101101.66;;;14.17;89.44
32638;BME280;19045;52.268;10.506;2022-10-31T02:50:22;101101.13;;;14.20;89.80
32638;BME280;19045;52.268;10.506;2022-10-31T02:52:51;101101.13;;;14.25;89.03
32638;BME280;19045;52.268;10.506;2022-10-31T02:55:44;101104.41;;;14.27;89.32
32638;BME280;19045;52.268;10.506;2022-10-31T02:58:15;101104.88;;;14.14;90.30
32638;BME280;19045;52.268;10.506;2022-10-31T03:00:52;101104.06;;;14.19;89.77
32638;BME280;19045;52.268;10.506;2022-10-31T03:03:30;101104.06;;;14.19;89.88
32638;BME280;19045;52.268;10.506;2022-10-31T03:06:03;101101.38;;;14.19;90.28
32638;BME280;19045;52.268;10.506;2022-10-31T03:08:34;101106.78;;;14.14;91.30
32638;BME280;19045;52.268;10.506;2022-10-31T03:11:03;101105.13;;;14.13;91.80
32638;BME280;19045;52.268;10.506;2022-10-31T03:13:34;101103.56;;;14.22;91.17
32638;BME280;19045;52.268;10.506;2022-10-31T03:16:07;101102.47;;;14.23;91.22
32638;BME280;19045;52.268;10.506;2022-10-31T03:18:39;101111.44;;;14.28;90.80
32638;BME280;19045;52.268;10.506;2022-10-31T03:21:10;101110.91;;;14.31;91.26
32638;BME280;19045;52.268;10.506;2022-10-31T03:23:39;101114.47;;;14.37;91.24
32638;BME280;19045;52.268;10.506;2022-10-31T03:26:07;101111.78;;;14.47;90.03
32638;BME280;19045;52.268;10.506;2022-10-31T03:28:38;101124.13;;;14.33;91.02
32638;BME280;19045;52.268;10.506;2022-10-31T03:31:09;101105.50;;;14.31;91.24
32638;BME280;19045;52.268;10.506;2022-10-31T03:33:39;101117.34;;;14.20;92.26
32638;BME280;19045;52.268;10.506;2022-10-31T03:36:08;101122.22;;;14.18;92.32
32638;BME280;19045;52.268;10.506;2022-10-31T03:38:37;101116.19;;;14.01;93.87
32638;BME280;19045;52.268;10.506;2022-10-31T03:41:09;101115.88;;;13.97;93.95
32638;BME280;19045;52.268;10.506;2022-10-31T03:43:40;101117.28;;;14.05;93.40
32638;BME280;19045;52.268;10.506;2022-10-31T03:46:08;101107.53;;;14.04;93.71
32638;BME280;19045;52.268;10.506;2022-10-31T03:48:35;101109.44;;;14.04;94.06
32638;BME280;19045;52.268;10.506;2022-10-31T03:51:06;101118.53;;;13.92;94.90
32638;BME280;19045;52.268;10.506;2022-10-31T03:53:39;101123.63;;;13.84;95.88
32638;BME280;19045;52.268;10.506;2022-10-31T03:56:11;101122.88;;;13.93;95.64
32638;BME280;19045;52.268;10.506;2022-10-31T03:58:42;101124.16;;;13.81;96.85
32638;BME280;19045;52.268;10.506;2022-10-31T04:01:15;101129.50;;;13.76;96.73
32638;BME280;19045;52.268;10.506;2022-10-31T04:03:44;101127.38;;;13.78;96.98
32638;BME280;19045;52.268;10.506;2022-10-31T04:06:16;101133.31;;;13.80;96.83
32638;BME280;19045;52.268;10.506;2022-10-31T04:08:48;101134.47;;;13.89;95.96
32638;BME280;19045;52.268;10.506;2022-10-31T04:11:17;101130.34;;;13.76;97.09
32638;BME280;19045;52.268;10.506;2022-10-31T04:13:46;101134.09;;;13.70;97.90
32638;BME280;19045;52.268;10.506;2022-10-31T04:16:15;101133.03;;;13.71;98.12
32638;BME280;19045;52.268;10.506;2022-10-31T04:18:42;101142.44;;;13.69;97.28
32638;BME280;19045;52.268;10.506;2022-10-31T04:21:09;101140.22;;;13.61;98.07
32638;BME280;19045;52.268;10.506;2022-10-31T04:23:37;101141.81;;;13.57;98.73
32638;BME280;19045;52.268;10.506;2022-10-31T04:26:04;101141.00;;;13.56;98.56
32638;BME280;19045;52.268;10.506;2022-10-31T04:28:31;101146.69;;;13.60;98.41
32638;BME280;19045;52.268;10.506;2022-10-31T04:30:59;101141.34;;;13.65;98.30
32638;BME280;19045;52.268;10.506;2022-10-31T04:33:25;101147.81;;;13.64;98.54
32638;BME280;19045;52.268;10.506;2022-10-31T04:35:52;101149.88;;;13.52;99.48
32638;BME280;19045;52.268;10.506;2022-10-31T04:38:18;101149.63;;;13.53;99.74
32638;BME280;19045;52.268;10.506;2022-10-31T04:40:46;101149.59;;;13.48;100.00
32638;BME280;19045;52.268;10.506;2022-10-31T04:43:13;101158.97;;;13.40;100.00
32638;BME280;19045;52.268;10.506;2022-10-31T04:45:39;101160.22;;;13.28;100.00
32638;BME280;19045;52.268;10.506;2022-10-31T04:48:06;101164.50;;;13.24;100.00
32638;BME280;19045;52.268;10.506;2022-10-31T04:50:33;101158.34;;;13.28;100.00
32638;BME280;19045;52.268;10.506;2022-10-31T04:52:59;101167.94;;;13.19;100.00
32638;BME280;19045;52.268;10.506;2022-10-31T04:55:26;101161.75;;;13.19;100.00
32638;BME280;19045;52.268;10.506;2022-10-31T04:57:54;101160.53;;;13.31;100.00
32638;BME280;19045;52.268;10.506;2022-10-31T05:00:22;101166.06;;;13.20;100.00
32638;BME280;19045;52.268;10.506;2022-10-31T05:02:50;101165.81;;;13.21;100.00
32638;BME280;19045;52.268;10.506;2022-10-31T05:05:19;101173.09;;;13.21;100.00
32638;BME280;19045;52.268;10.506;2022-10-31T05:07:47;101162.59;;;13.24;100.00
32638;BME280;19045;52.268;10.506;2022-10-31T05:10:16;101166.06;;;13.20;100.00
32638;BME280;19045;52.268;10.506;2022-10-31T05:12:46;101164.19;;;13.20;100.00
32638;BME280;19045;52.268;10.506;2022-10-31T05:15:16;101162.09;;;13.27;100.00
32638;BME280;19045;52.268;10.506;2022-10-31T05:17:43;101163.22;;;13.31;100.00
32638;BME280;19045;52.268;10.506;2022-10-31T05:20:11;101166.66;;;13.22;100.00
32638;BME280;19045;52.268;10.506;2022-10-31T05:22:41;101163.47;;;13.30;100.00
32638;BME280;19045;52.268;10.506;2022-10-31T05:25:08;101157.81;;;13.31;100.00
32638;BME280;19045;52.268;10.506;2022-10-31T05:27:38;101165.53;;;13.18;100.00
32638;BME280;19045;52.268;10.506;2022-10-31T05:30:06;101166.28;;;13.13;100.00
32638;BME280;19045;52.268;10.506;2022-10-31T05:32:37;101162.31;;;13.21;100.00
32638;BME280;19045;52.268;10.506;2022-10-31T05:35:06;101169.25;;;13.12;100.00
32638;BME280;19045;52.268;10.506;2022-10-31T05:37:33;101160.63;;;13.15;100.00
32638;BME280;19045;52.268;10.506;2022-10-31T05:40:00;101167.63;;;13.16;100.00
32638;BME280;19045;52.268;10.506;2022-10-31T05:42:27;101166.06;;;13.20;100.00
32638;BME280;19045;52.268;10.506;2022-10-31T05:44:53;101162.84;;;13.23;100.00
32638;BME280;19045;52.268;10.506;2022-10-31T05:47:20;101160.38;;;13.16;100.00
32638;BME280;19045;52.268;10.506;2022-10-31T05:49:48;101159.81;;;13.14;100.00
32638;BME280;19045;52.268;10.506;2022-10-31T05:52:15;101156.59;;;13.17;100.00
32638;BME280;19045;52.268;10.506;2022-10-31T05:54:41;101152.25;;;13.11;100.00
32638;BME280;19045;52.268;10.506;2022-10-31T05:57:10;101156.38;;;13.19;100.00
32638;BME280;19045;52.268;10.506;2022-10-31T05:59:36;101153.38;;;13.15;100.00
32638;BME280;19045;52.268;10.506;2022-10-31T06:02:03;101163.88;;;13.17;100.00
32638;BME280;19045;52.268;10.506;2022-10-31T06:04:30;101167.72;;;13.26;100.00
32638;BME280;19045;52.268;10.506;2022-10-31T06:06:58;101172.28;;;13.20;100.00
32638;BME280;19045;52.268;10.506;2022-10-31T06:09:24;101172.47;;;13.09;100.00
32638;BME280;19045;52.268;10.506;2022-10-31T06:11:51;101169.63;;;12.99;100.00
32638;BME280;19045;52.268;10.506;2022-10-31T06:14:17;101177.72;;;12.99;100.00
32638;BME280;19045;52.268;10.506;2022-10-31T06:16:44;101173.59;;;12.91;100.00
32638;BME280;19045;52.268;10.506;2022-10-31T06:19:11;101172.75;;;12.90;100.00
32638;BME280;19045;52.268;10.506;2022-10-31T06:21:37;101180.94;;;12.95;100.00
32638;BME280;19045;52.268;10.506;2022-10-31T06:24:05;101178.81;;;13.03;100.00
32638;BME280;19045;52.268;10.506;2022-10-31T06:26:32;101177.66;;;13.15;100.00
32638;BME280;19045;52.268;10.506;2022-10-31T06:28:59;101178.63;;;13.09;100.00
32638;BME280;19045;52.268;10.506;2022-10-31T06:31:25;101184.22;;;13.03;100.00
32638;BME280;19045;52.268;10.506;2022-10-31T06:33:52;101179.09;;;13.01;100.00
32638;BME280;19045;52.268;10.506;2022-10-31T06:36:18;101189.13;;;13.06;100.00
32638;BME280;19045;52.268;10.506;2022-10-31T06:38:45;101192.06;;;13.04;100.00
32638;BME280;19045;52.268;10.506;2022-10-31T06:41:13;101197.59;;;13.14;100.00
32638;BME280;19045;52.268;10.506;2022-10-31T06:43:41;101204.94;;;13.19;100.00
32638;BME280;19045;52.268;10.506;2022-10-31T06:46:07;101200.41;;;13.29;100.00
32638;BME280;19045;52.268;10.506;2022-10-31T06:48:34;101203.47;;;13.38;100.00
32638;BME280;19045;52.268;10.506;2022-10-31T06:51:01;101210.88;;;13.53;100.00
32638;BME280;19045;52.268;10.506;2022-10-31T06:53:28;101205.78;;;13.56;100.00
32638;BME280;19045;52.268;10.506;2022-10-31T06:55:55;101202.34;;;13.66;100.00
32638;BME280;19045;52.268;10.506;2022-10-31T06:58:23;101213.88;;;13.88;100.00
32638;BME280;19045;52.268;10.506;2022-10-31T07:00:50;101219.88;;;13.95;100.00
32638;BME280;19045;52.268;10.506;2022-10-31T07:03:16;101223.97;;;14.03;99.65
32638;BME280;19045;52.268;10.506;2022-10-31T07:05:44;101222.44;;;14.17;98.88
32638;BME280;19045;52.268;10.506;2022-10-31T07:08:12;101221.72;;;14.31;98.42
32638;BME280;19045;52.268;10.506;2022-10-31T07:10:41;101216.94;;;14.43;96.72
32638;BME280;19045;52.268;10.506;2022-10-31T07:13:11;101217.00;;;14.54;96.36
32638;BME280;19045;52.268;10.506;2022-10-31T07:15:41;101216.75;;;14.65;95.31
32638;BME280;19045;52.268;10.506;2022-10-31T07:18:10;101218.44;;;14.71;95.76
32638;BME280;19045;52.268;10.506;2022-10-31T07:20:37;101217.13;;;14.89;94.95
32638;BME280;19045;52.268;10.506;2022-10-31T07:23:04;101220.38;;;14.96;93.55
32638;BME280;19045;52.268;10.506;2022-10-31T07:25:30;101224.75;;;15.12;93.55
32638;BME280;19045;52.268;10.506;2022-10-31T07:27:57;101225.31;;;15.19;92.05
32638;BME280;19045;52.268;10.506;2022-10-31T07:30:23;101217.50;;;15.28;92.12
32638;BME280;19045;52.268;10.506;2022-10-31T07:32:51;101222.38;;;15.41;92.01
32638;BME280;19045;52.268;10.506;2022-10-31T07:35:19;101227.03;;;15.61;91.60
32638;BME280;19045;52.268;10.506;2022-10-31T07:37:47;101228.38;;;15.73;90.00
32638;BME280;19045;52.268;10.506;2022-10-31T07:40:14;101217.78;;;15.82;89.02
32638;BME280;19045;52.268;10.506;2022-10-31T07:42:41;101218.88;;;15.96;88.39
32638;BME280;19045;52.268;10.506;2022-10-31T07:45:10;101221.53;;;16.11;88.21
32638;BME280;19045;52.268;10.506;2022-10-31T07:47:40;101223.72;;;16.09;88.01
32638;BME280;19045;52.268;10.506;2022-10-31T07:50:13;101230.78;;;16.10;87.41
32638;BME280;19045;52.268;10.506;2022-10-31T07:52:40;101234.00;;;16.12;87.25
32638;BME280;19045;52.268;10.506;2022-10-31T07:55:08;101231.31;;;16.17;87.48
32638;BME280;19045;52.268;10.506;2022-10-31T07:57:34;101216.91;;;16.27;86.60
32638;BME280;19045;52.268;10.506;2022-10-31T08:00:02;101220.69;;;16.31;86.83
32638;BME280;19045;52.268;10.506;2022-10-31T08:02:29;101222.88;;;16.34;85.80
32638;BME280;19045;52.268;10.506;2022-10-31T08:04:56;101216.88;;;16.37;86.60
32638;BME280;19045;52.268;10.506;2022-10-31T08:07:23;101217.94;;;16.41;86.44
32638;BME280;19045;52.268;10.506;2022-10-31T08:09:50;101224.97;;;16.52;85.99
32638;BME280;19045;52.268;10.506;2022-10-31T08:12:17;101225.50;;;16.49;85.53
32638;BME280;19045;52.268;10.506;2022-10-31T08:14:44;101221.78;;;16.25;86.27
32638;BME280;19045;52.268;10.506;2022-10-31T08:17:10;101234.56;;;15.99;88.15
32638;BME280;19045;52.268;10.506;2022-10-31T08:19:37;101228.88;;;15.95;88.62
32638;BME280;19045;52.268;10.506;2022-10-31T08:22:04;101232.44;;;15.71;89.47
32638;BME280;19045;52.268;10.506;2022-10-31T08:24:32;101233.72;;;15.38;91.84
32638;BME280;19045;52.268;10.506;2022-10-31T08:26:58;101232.34;;;15.20;93.05
32638;BME280;19045;52.268;10.506;2022-10-31T08:29:25;101239.88;;;15.08;94.41
32638;BME280;19045;52.268;10.506;2022-10-31T08:31:52;101238.53;;;15.06;94.87
32638;BME280;19045;52.268;10.506;2022-10-31T08:34:18;101236.66;;;15.06;96.08
32638;BME280;19045;52.268;10.506;2022-10-31T08:36:45;101237.19;;;15.18;95.50
32638;BME280;19045;52.268;10.506;2022-10-31T08:39:11;101242.66;;;15.33;94.06
32638;BME280;19045;52.268;10.506;2022-10-31T08:41:39;101234.28;;;15.40;94.01
32638;BME280;19045;52.268;10.506;2022-10-31T08:44:06;101231.34;;;15.57;92.95
32638;BME280;19045;52.268;10.506;2022-10-31T08:46:34;101239.72;;;15.75;92.78
32638;BME280;19045;52.268;10.506;2022-10-31T08:49:01;101227.53;;;15.98;92.12
32638;BME280;19045;52.268;10.506;2022-10-31T08:51:28;101221.81;;;16.15;92.11
32638;BME280;19045;52.268;10.506;2022-10-31T08:53:54;101229.38;;;16.33;91.31
32638;BME280;19045;52.268;10.506;2022-10-31T08:56:21;101227.69;;;16.52;88.24
32638;BME280;19045;52.268;10.506;2022-10-31T08:58:49;101219.78;;;16.66;88.11
32638;BME280;19045;52.268;10.506;2022-10-31T09:01:16;101217.03;;;16.76;88.15
32638;BME280;19045;52.268;10.506;2022-10-31T09:03:43;101220.16;;;16.98;88.74
32638;BME280;19045;52.268;10.506;2022-10-31T09:06:10;101218.19;;;17.52;87.52
32638;BME280;19045;52.268;10.506;2022-10-31T09:08:37;101213.69;;;18.29;84.38
32638;BME280;19045;52.268;10.506;2022-10-31T09:11:04;101214.22;;;18.97;80.70
32638;BME280;19045;52.268;10.506;2022-10-31T09:13:32;101219.81;;;19.76;75.51
32638;BME280;19045;52.268;10.506;2022-10-31T09:16:00;101221.97;;;20.52;72.11
32638;BME280;19045;52.268;10.506;2022-10-31T09:18:26;101219.22;;;20.79;69.23
32638;BME280;19045;52.268;10.506;2022-10-31T09:20:54;101212.97;;;20.65;69.26
32638;BME280;19045;52.268;10.506;2022-10-31T09:23:23;101214.41;;;20.35;68.94
32638;BME280;19045;52.268;10.506;2022-10-31T09:25:51;101213.78;;;19.79;71.48
32638;BME280;19045;52.268;10.506;2022-10-31T09:28:19;101211.03;;;19.65;72.56
32638;BME280;19045;52.268;10.506;2022-10-31T09:30:47;101195.28;;;20.22;71.25
32638;BME280;19045;52.268;10.506;2022-10-31T09:33:16;101208.69;;;21.58;67.65
32638;BME280;19045;52.268;10.506;2022-10-31T09:35:43;101196.75;;;23.54;60.62
32638;BME280;19045;52.268;10.506;2022-10-31T09:38:11;101199.38;;;25.02;52.40
32638;BME280;19045;52.268;10.506;2022-10-31T09:40:41;101201.50;;;25.38;52.44
32638;BME280;19045;52.268;10.506;2022-10-31T09:43:14;101201.19;;;27.30;45.89
32638;BME280;19045;52.268;10.506;2022-10-31T09:45:52;101212.63;;;28.31;43.06
32638;BME280;19045;52.268;10.506;2022-10-31T09:48:30;101203.81;;;28.92;41.27
32638;BME280;19045;52.268;10.506;2022-10-31T09:51:03;101194.81;;;29.52;41.50
32638;BME280;19045;52.268;10.506;2022-10-31T09:53:37;101200.41;;;30.20;39.88
32638;BME280;19045;52.268;10.506;2022-10-31T09:56:06;101191.91;;;31.11;37.91
32638;BME280;19045;52.268;10.506;2022-10-31T09:58:39;101194.94;;;32.06;36.51
32638;BME280;19045;52.268;10.506;2022-10-31T10:01:17;101185.53;;;32.76;34.32
32638;BME280;19045;52.268;10.506;2022-10-31T10:03:50;101188.94;;;33.10;34.31
32638;BME280;19045;52.268;10.506;2022-10-31T10:06:23;101182.88;;;32.97;33.86
32638;BME280;19045;52.268;10.506;2022-10-31T10:08:51;101186.97;;;33.17;33.75
32638;BME280;19045;52.268;10.506;2022-10-31T10:11:32;101182.91;;;33.08;33.52
32638;BME280;19045;52.268;10.506;2022-10-31T10:14:25;101179.50;;;33.43;32.59
32638;BME280;19045;52.268;10.506;2022-10-31T10:17:07;101179.47;;;33.39;32.81
32638;BME280;19045;52.268;10.506;2022-10-31T10:19:53;101185.47;;;33.48;32.22
32638;BME280;19045;52.268;10.506;2022-10-31T10:22:28;101176.00;;;33.95;31.58
32638;BME280;19045;52.268;10.506;2022-10-31T10:25:17;101167.25;;;34.39;30.94
32638;BME280;19045;52.268;10.506;2022-10-31T10:27:51;101163.19;;;34.79;30.64
32638;BME280;19045;52.268;10.506;2022-10-31T10:30:28;101162.34;;;33.30;32.14
32638;BME280;19045;52.268;10.506;2022-10-31T10:33:02;101163.97;;;33.52;31.53
32638;BME280;19045;52.268;10.506;2022-10-31T10:35:33;101155.56;;;33.24;32.25
32638;BME280;19045;52.268;10.506;2022-10-31T10:38:03;101150.53;;;32.75;32.52
32638;BME280;19045;52.268;10.506;2022-10-31T10:40:34;101153.06;;;31.89;34.27
32638;BME280;19045;52.268;10.506;2022-10-31T10:43:13;101148.28;;;33.02;32.39
32638;BME280;19045;52.268;10.506;2022-10-31T10:45:50;101139.06;;;32.22;32.99
32638;BME280;19045;52.268;10.506;2022-10-31T10:48:42;101135.78;;;33.61;31.12
32638;BME280;19045;52.268;10.506;2022-10-31T10:51:26;101130.53;;;34.51;30.22
32638;BME280;19045;52.268;10.506;2022-10-31T10:54:03;101129.16;;;35.16;28.70
32638;BME280;19045;52.268;10.506;2022-10-31T10:56:49;101124.28;;;35.89;28.42
32638;BME280;19045;52.268;10.506;2022-10-31T10:59:19;101125.16;;;36.64;27.17
32638;BME280;19045;52.268;10.506;2022-10-31T11:01:50;101119.41;;;37.09;26.89
32638;BME280;19045;52.268;10.506;2022-10-31T11:04:30;101114.88;;;37.18;26.15
32638;BME280;19045;52.268;10.506;2022-10-31T11:07:03;101107.28;;;36.14;27.54
32638;BME280;19045;52.268;10.506;2022-10-31T11:09:31;101108.03;;;36.59;27.18
32638;BME280;19045;52.268;10.506;2022-10-31T11:11:58;101101.06;;;37.04;26.79
32638;BME280;19045;52.268;10.506;2022-10-31T11:14:26;101099.41;;;37.07;26.37
32638;BME280;19045;52.268;10.506;2022-10-31T11:16:55;101102.47;;;37.16;26.70
32638;BME280;19045;52.268;10.506;2022-10-31T11:19:24;101097.38;;;37.11;26.52
32638;BME280;19045;52.268;10.506;2022-10-31T11:21:52;101101.31;;;36.12;27.95
32638;BME280;19045;52.268;10.506;2022-10-31T11:24:21;101096.16;;;37.39;26.31
32638;BME280;19045;52.268;10.506;2022-10-31T11:26:49;101091.69;;;38.38;24.54
32638;BME280;19045;52.268;10.506;2022-10-31T11:29:20;101089.03;;;38.50;24.10
32638;BME280;19045;52.268;10.506;2022-10-31T11:31:50;101089.53;;;39.20;23.55
32638;BME280;19045;52.268;10.506;2022-10-31T11:34:27;101082.22;;;39.07;23.37
32638;BME280;19045;52.268;10.506;2022-10-31T11:37:01;101081.56;;;39.35;23.39
32638;BME280;19045;52.268;10.506;2022-10-31T11:39:30;101073.31;;;39.44;23.09
32638;BME280;19045;52.268;10.506;2022-10-31T11:42:00;101071.28;;;38.34;23.84
32638;BME280;19045;52.268;10.506;2022-10-31T11:44:28;101069.84;;;38.02;24.89
32638;BME280;19045;52.268;10.506;2022-10-31T11:46:59;101079.59;;;35.23;28.05
32638;BME280;19045;52.268;10.506;2022-10-31T11:49:30;101069.78;;;36.42;26.97
32638;BME280;19045;52.268;10.506;2022-10-31T11:52:01;101065.28;;;36.51;26.58
32638;BME280;19045;52.268;10.506;2022-10-31T11:54:31;101069.16;;;36.27;26.47
32638;BME280;19045;52.268;10.506;2022-10-31T11:56:59;101065.22;;;36.21;27.27
32638;BME280;19045;52.268;10.506;2022-10-31T11:59:27;101057.81;;;35.59;27.31
32638;BME280;19045;52.268;10.506;2022-10-31T12:01:56;101060.75;;;34.58;29.01
32638;BME280;19045;52.268;10.506;2022-10-31T12:04:30;101055.28;;;33.17;31.28
32638;BME280;19045;52.268;10.506;2022-10-31T12:06:57;101057.66;;;33.22;30.35
32638;BME280;19045;52.268;10.506;2022-10-31T12:09:28;101057.69;;;33.47;30.44
32638;BME280;19045;52.268;10.506;2022-10-31T12:12:21;101054.84;;;34.28;29.52
32638;BME280;19045;52.268;10.506;2022-10-31T12:15:02;101061.69;;;33.85;30.36
32638;BME280;19045;52.268;10.506;2022-10-31T12:17:36;101042.97;;;32.28;31.81
32638;BME280;19045;52.268;10.506;2022-10-31T12:20:16;101048.34;;;30.79;34.30
32638;BME280;19045;52.268;10.506;2022-10-31T12:22:56;101056.91;;;29.61;36.79
32638;BME280;19045;52.268;10.506;2022-10-31T12:25:34;101044.31;;;29.67;36.82
32638;BME280;19045;52.268;10.506;2022-10-31T12:31:06;101038.22;;;28.94;38.43
32638;BME280;19045;52.268;10.506;2022-10-31T12:33:47;101038.75;;;28.07;40.17
32638;BME280;19045;52.268;10.506;2022-10-31T12:36:28;101031.28;;;27.45;41.10
32638;BME280;19045;52.268;10.506;2022-10-31T12:39:18;101024.06;;;26.81;42.74
32638;BME280;19045;52.268;10.506;2022-10-31T12:41:52;101026.16;;;26.20;43.93
32638;BME280;19045;52.268;10.506;2022-10-31T12:44:34;101025.50;;;25.75;45.60
32638;BME280;19045;52.268;10.506;2022-10-31T12:47:23;101030.13;;;25.38;46.36
32638;BME280;19045;52.268;10.506;2022-10-31T12:50:00;101022.25;;;25.48;47.54
32638;BME280;19045;52.268;10.506;2022-10-31T12:52:42;101006.59;;;27.20;43.90
32638;BME280;19045;52.268;10.506;2022-10-31T12:55:23;101009.19;;;28.65;40.22
32638;BME280;19045;52.268;10.506;2022-10-31T12:57:59;101011.66;;;28.51;40.85